Airfield :
LOGIN :

Register | Disclaimer

   EN    FR    IT 

 










Legend :    VFR   Marginal VFR   IFR   Intensive IFR   Very Intensive IFR
Visi :
Ceiling :
>= 8 km
>= 3000ft
5 to 8 km
1000 to 3000 ft
1500m to 5 km
500 to 1000 ft
800 to 1500m
200 to 500 ft
< 800m
< 200 ft
Symbols :   Thunderstorms  Fog  Heavy snow  Heavy precipitations  Wind > 20 kt
SIGMETs :     Misc.  Thunderstorms  Icing  Turbulence  Mountain Waves  Volcanic Ashes






- Airport Elevation : 17 ft
- IATA code : MPL


LFMT - Montpellier Méditerranée

CURRENT METAR :
  • 261230Z AUTO 08009KT CAVOK 24/17 Q1018 NOSIG

EXPIRED METARs :
  • 261200Z AUTO 05008KT 020V080 CAVOK 24/16 Q1018 NOSIG
  • 261130Z AUTO 01010KT CAVOK 24/16 Q1019 NOSIG
  • 261100Z AUTO 02010KT CAVOK 23/17 Q1019 NOSIG
  • 261030Z AUTO 02010KT CAVOK 22/17 Q1019 NOSIG
  • 261000Z AUTO 02012KT 9999 FEW043 22/17 Q1019 TEMPO SHRA BKN010 FEW030TCU

TAF TAF LFMT
Valid from the 26 at 09:00 until the 27 at 09:00 UTC


260800Z 2609/2709 01010KT 9999 BKN020
PROB30
TEMPO 2609/2611 SHRA BKN010 FEW030TCU
BECMG 2611/2613 VRB03KT CAVOK
PROB30
TEMPO 2702/2706 2000 BR BKN005
ATIS : +33 4 67 13 11 70



MET'MAP, your aeronautical weather chart ! - Copyright ORBIFLY December 2007 - Disclaimer

ORBIFLY MET'MAP TEAM :

Programming & Development : Alexandra Zaïnal
Concept & original design : Baudouin d'Aumeries
Assistance for programming : Marc-Olivier Méhu
Technical & hardware support : Manuel Goepfert

Contact : metmap@orbifly.com




SOURCES & CREDITS :

   NOAA